createdAt,value
2017-10-22T00:00:09.732Z,70.70
2017-10-22T00:02:37.709Z,70.60
2017-10-22T00:05:06.089Z,70.00
2017-10-22T00:07:34.057Z,70.60
2017-10-22T00:10:02.075Z,70.70
2017-10-22T00:12:30.092Z,72.30
2017-10-22T00:14:57.701Z,75.50
2017-10-22T00:17:25.265Z,75.10
2017-10-22T00:19:52.827Z,76.00
2017-10-22T00:22:20.440Z,78.90
2017-10-22T00:24:48.002Z,75.80
2017-10-22T00:27:15.593Z,76.60
2017-10-22T00:29:43.562Z,74.90
2017-10-22T00:32:11.182Z,75.70
2017-10-22T00:34:38.749Z,76.20
2017-10-22T00:37:06.306Z,75.80
2017-10-22T00:39:33.934Z,76.30
2017-10-22T00:42:01.493Z,76.80
2017-10-22T00:44:29.934Z,74.90
2017-10-22T00:46:57.898Z,73.60
2017-10-22T00:49:25.926Z,73.30
2017-10-22T00:54:22.483Z,73.70
2017-10-22T00:56:51.552Z,71.90
2017-10-22T00:59:19.518Z,72.80
2017-10-22T01:01:48.733Z,72.10
2017-10-22T01:04:16.292Z,74.30
2017-10-22T01:06:44.669Z,71.40
2017-10-22T01:09:12.232Z,71.10
2017-10-22T01:11:39.893Z,73.40
2017-10-22T01:14:07.467Z,71.30
2017-10-22T01:16:35.054Z,70.30
2017-10-22T01:19:02.670Z,72.30
2017-10-22T01:21:30.273Z,72.90
2017-10-22T01:23:57.901Z,73.90
2017-10-22T01:26:26.261Z,73.40
2017-10-22T01:28:54.230Z,73.90
2017-10-22T01:31:21.844Z,73.70
2017-10-22T01:33:49.810Z,74.80
2017-10-22T01:36:17.437Z,75.70
2017-10-22T01:38:45.030Z,75.00
2017-10-22T01:41:12.653Z,76.60
2017-10-22T01:43:40.245Z,77.40
2017-10-22T01:46:08.801Z,74.20
2017-10-22T01:48:36.727Z,74.20
2017-10-22T01:51:04.286Z,74.50
2017-10-22T01:53:32.678Z,74.10
2017-10-22T01:56:00.240Z,74.60
2017-10-22T01:58:28.288Z,74.20
2017-10-22T02:00:55.948Z,74.70
2017-10-22T02:03:23.508Z,74.60
2017-10-22T02:05:51.128Z,74.40
2017-10-22T02:08:18.703Z,74.30
2017-10-22T02:10:46.325Z,75.90
2017-10-22T02:13:13.914Z,75.00
2017-10-22T02:15:41.503Z,74.00
2017-10-22T02:18:09.077Z,76.20
2017-10-22T02:20:36.641Z,76.10
2017-10-22T02:23:04.248Z,72.50
2017-10-22T02:25:32.573Z,73.80
2017-10-22T02:28:00.949Z,73.90
2017-10-22T02:30:28.509Z,77.10
2017-10-22T02:32:56.117Z,74.10
2017-10-22T02:35:25.904Z,73.40
2017-10-22T02:37:53.543Z,74.80
2017-10-22T02:40:21.182Z,73.70
2017-10-22T02:42:48.745Z,74.00
2017-10-22T02:45:17.488Z,74.10
2017-10-22T02:47:45.053Z,77.70
2017-10-22T02:50:12.664Z,75.90
2017-10-22T02:52:40.236Z,74.30
2017-10-22T02:55:08.239Z,74.30
2017-10-22T02:57:35.801Z,73.10
2017-10-22T03:00:03.415Z,77.40
2017-10-22T03:02:30.986Z,77.80
2017-10-22T03:04:59.773Z,73.30
2017-10-22T03:07:28.109Z,73.50
2017-10-22T03:09:55.685Z,73.40
2017-10-22T03:12:23.295Z,75.30
2017-10-22T03:14:51.296Z,73.10
2017-10-22T03:17:18.897Z,73.30
2017-10-22T03:19:46.477Z,75.10
2017-10-22T03:22:14.097Z,76.10
2017-10-22T03:24:41.669Z,73.50
2017-10-22T03:27:09.294Z,76.20
2017-10-22T03:29:36.852Z,75.20
2017-10-22T03:32:04.849Z,74.10
2017-10-22T03:34:32.414Z,76.10
2017-10-22T03:37:01.181Z,73.30
2017-10-22T03:39:28.757Z,73.90
2017-10-22T03:41:56.347Z,74.80
2017-10-22T03:44:23.962Z,77.00
2017-10-22T03:46:51.536Z,73.20
2017-10-22T03:49:19.180Z,76.30
2017-10-22T03:51:46.741Z,70.90
2017-10-22T03:54:14.379Z,71.80
2017-10-22T03:56:42.001Z,69.80
2017-10-22T03:59:10.726Z,68.70
2017-10-22T04:01:39.138Z,68.40
2017-10-22T04:04:07.102Z,70.10
2017-10-22T04:06:35.186Z,70.70
2017-10-22T04:09:03.150Z,70.80
2017-10-22T04:11:31.962Z,71.10
2017-10-22T04:13:59.924Z,70.30
2017-10-22T04:16:28.614Z,69.40
2017-10-22T04:18:57.000Z,69.70
2017-10-22T04:21:24.962Z,69.80
2017-10-22T04:23:53.714Z,70.10
2017-10-22T04:26:21.274Z,69.80
2017-10-22T04:31:18.225Z,70.30
2017-10-22T04:33:46.180Z,70.40
2017-10-22T04:36:14.561Z,71.40
2017-10-22T04:38:43.264Z,71.40
2017-10-22T04:41:11.297Z,71.50
2017-10-22T04:43:39.632Z,72.40
2017-10-22T04:46:07.657Z,72.50
2017-10-22T04:48:35.990Z,72.60
2017-10-22T04:51:04.061Z,72.40
2017-10-22T04:53:32.024Z,72.00
2017-10-22T05:00:58.027Z,72.20
2017-10-22T05:03:25.993Z,72.60
2017-10-22T05:05:53.945Z,72.40
2017-10-22T05:08:23.058Z,72.50
2017-10-22T05:10:51.416Z,72.40
2017-10-22T05:13:19.043Z,72.60
2017-10-22T05:15:46.673Z,74.20
2017-10-22T05:18:14.313Z,72.10
2017-10-22T05:20:42.673Z,71.80
2017-10-22T05:23:11.070Z,72.40
2017-10-22T05:25:39.038Z,72.60
2017-10-22T05:28:07.429Z,72.70
2017-10-22T05:30:35.773Z,73.10
2017-10-22T05:33:04.124Z,73.00
2017-10-22T05:35:32.138Z,72.70
2017-10-22T05:38:01.358Z,70.80
2017-10-22T05:40:29.752Z,70.80
2017-10-22T05:42:57.320Z,69.50
2017-10-22T05:45:25.694Z,69.10
2017-10-22T05:47:53.262Z,66.70
2017-10-22T05:50:21.639Z,65.70
2017-10-22T05:52:49.226Z,67.70
2017-10-22T05:55:17.980Z,66.10
2017-10-22T05:57:45.536Z,65.30
2017-10-22T06:00:13.165Z,65.90
2017-10-22T06:02:40.770Z,65.10
2017-10-22T06:05:09.492Z,66.60
2017-10-22T06:07:37.105Z,65.20
2017-10-22T06:10:05.442Z,64.00
2017-10-22T06:12:33.090Z,64.50
2017-10-22T06:15:00.662Z,66.20
2017-10-22T06:17:28.220Z,61.60
2017-10-22T06:19:55.847Z,62.20
2017-10-22T06:22:23.405Z,64.00
2017-10-22T06:24:51.648Z,61.10
2017-10-22T06:27:19.795Z,61.20
2017-10-22T06:29:47.426Z,62.10
2017-10-22T06:32:14.986Z,60.20
2017-10-22T06:34:42.545Z,62.00
2017-10-22T06:39:39.236Z,62.10
2017-10-22T06:42:06.880Z,63.70
2017-10-22T06:44:35.360Z,62.90
2017-10-22T06:47:03.137Z,63.40
2017-10-22T06:49:30.969Z,59.90
2017-10-22T06:51:58.648Z,59.20
2017-10-22T06:54:26.371Z,61.60
2017-10-22T06:56:54.075Z,59.80
2017-10-22T06:59:21.830Z,60.60
2017-10-22T07:01:50.733Z,59.10
2017-10-22T07:04:19.401Z,59.70
2017-10-22T07:06:47.176Z,58.70
2017-10-22T07:09:14.952Z,59.20
2017-10-22T07:14:12.240Z,58.60
2017-10-22T07:16:39.929Z,58.30
2017-10-22T07:19:08.524Z,58.10
2017-10-22T07:21:36.216Z,60.60
2017-10-22T07:24:03.862Z,60.90
2017-10-22T07:26:31.711Z,57.50
2017-10-22T07:28:59.588Z,60.70
2017-10-22T07:31:28.065Z,58.10
2017-10-22T07:33:55.820Z,57.90
2017-10-22T07:36:23.463Z,60.20
2017-10-22T07:38:51.039Z,57.30
2017-10-22T07:41:18.652Z,61.90
2017-10-22T07:43:46.462Z,57.70
2017-10-22T07:46:14.147Z,58.10
2017-10-22T07:48:41.786Z,58.70
2017-10-22T07:51:10.179Z,59.20
2017-10-22T07:53:38.212Z,57.80
2017-10-22T07:56:05.832Z,57.60
2017-10-22T07:58:33.402Z,59.20
2017-10-22T08:01:01.059Z,57.60
2017-10-22T08:03:28.624Z,59.50
2017-10-22T08:05:56.225Z,56.90
2017-10-22T08:08:24.296Z,57.80
2017-10-22T08:10:51.855Z,55.00
2017-10-22T08:13:20.591Z,54.90
2017-10-22T08:15:49.530Z,55.70
2017-10-22T08:18:17.344Z,54.80
2017-10-22T08:20:45.074Z,53.90
2017-10-22T08:23:12.928Z,53.40
2017-10-22T08:25:40.613Z,55.30
2017-10-22T08:28:08.289Z,57.70
2017-10-22T08:30:36.054Z,55.90
2017-10-22T08:33:03.795Z,55.30
2017-10-22T08:35:32.006Z,54.60
2017-10-22T08:38:00.114Z,53.10
2017-10-22T08:40:27.858Z,53.20
2017-10-22T08:42:55.784Z,52.40
2017-10-22T08:45:23.999Z,52.70
2017-10-22T08:47:52.404Z,53.40
2017-10-22T08:50:20.073Z,52.80
2017-10-22T08:52:47.800Z,53.30
2017-10-22T08:55:16.630Z,52.40
2017-10-22T08:57:44.386Z,51.90
2017-10-22T09:00:12.153Z,53.10
2017-10-22T09:02:39.925Z,51.80
2017-10-22T09:05:08.481Z,51.90
2017-10-22T09:07:36.262Z,51.30
2017-10-22T09:10:04.054Z,51.20
2017-10-22T09:12:31.763Z,50.90
2017-10-22T09:14:59.481Z,49.50
2017-10-22T09:17:27.232Z,49.90
2017-10-22T09:19:54.906Z,47.90
2017-10-22T09:22:22.521Z,46.40
2017-10-22T09:24:50.191Z,46.70
2017-10-22T09:27:17.963Z,47.40
2017-10-22T09:29:45.836Z,47.70
2017-10-22T09:32:13.663Z,47.60
2017-10-22T09:34:41.534Z,47.40
2017-10-22T09:37:09.244Z,46.00
2017-10-22T09:39:36.917Z,46.00
2017-10-22T09:42:04.595Z,46.30
2017-10-22T09:44:32.277Z,46.70
2017-10-22T09:46:59.934Z,44.20
2017-10-22T09:49:27.759Z,45.20
2017-10-22T09:51:55.384Z,46.20
2017-10-22T09:54:23.074Z,44.90
2017-10-22T09:56:50.765Z,43.40
2017-10-22T09:59:18.526Z,43.80
2017-10-22T10:01:46.243Z,44.00
2017-10-22T10:04:14.069Z,44.00
2017-10-22T10:06:41.744Z,45.30
2017-10-22T10:09:09.506Z,45.80
2017-10-22T10:11:37.675Z,44.40
2017-10-22T10:14:05.433Z,42.80
2017-10-22T10:16:33.482Z,41.30
2017-10-22T10:19:01.089Z,39.80
2017-10-22T10:21:28.991Z,38.50
2017-10-22T10:23:56.845Z,39.60
2017-10-22T10:26:24.618Z,38.10
2017-10-22T10:28:52.889Z,39.10
2017-10-22T10:31:20.695Z,40.00
2017-10-22T10:33:48.512Z,41.30
2017-10-22T10:38:45.934Z,44.30
2017-10-22T10:41:14.058Z,44.60
2017-10-22T10:43:42.798Z,44.30
2017-10-22T10:46:11.077Z,44.20
2017-10-22T10:48:38.865Z,43.50
2017-10-22T10:51:06.803Z,41.50
2017-10-22T10:53:34.802Z,41.80
2017-10-22T10:56:02.955Z,42.90
2017-10-22T10:58:31.145Z,43.80
2017-10-22T11:00:59.690Z,44.30
2017-10-22T11:03:27.373Z,45.60
2017-10-22T11:05:55.162Z,44.70
2017-10-22T11:08:22.991Z,46.10
2017-10-22T11:10:50.996Z,46.70
2017-10-22T11:13:18.933Z,47.20
2017-10-22T11:15:46.715Z,47.10
2017-10-22T11:18:14.457Z,46.70
2017-10-22T11:20:42.231Z,47.10
2017-10-22T11:23:10.695Z,48.40
2017-10-22T11:25:39.021Z,48.90
2017-10-22T11:28:06.946Z,48.40
2017-10-22T11:30:34.785Z,49.10
2017-10-22T11:33:02.707Z,49.70
2017-10-22T11:37:59.731Z,48.20
2017-10-22T11:40:28.211Z,48.20
2017-10-22T11:42:55.961Z,48.80
2017-10-22T11:45:24.084Z,48.40
2017-10-22T11:47:51.786Z,48.60
2017-10-22T11:50:19.639Z,49.00
2017-10-22T11:52:47.326Z,49.90
2017-10-22T11:55:15.792Z,49.40
2017-10-22T11:57:43.509Z,48.50
2017-10-22T12:00:11.205Z,48.80
2017-10-22T12:02:38.946Z,49.70
2017-10-22T12:05:06.652Z,50.70
2017-10-22T12:07:34.641Z,50.40
2017-10-22T12:10:02.459Z,50.30
2017-10-22T12:12:30.225Z,50.20
2017-10-22T12:14:58.046Z,49.40
2017-10-22T12:17:25.966Z,48.90
2017-10-22T12:19:53.856Z,49.30
2017-10-22T12:22:21.596Z,49.40
2017-10-22T12:24:49.326Z,49.00
2017-10-22T12:27:17.386Z,50.10
2017-10-22T12:29:45.073Z,50.50
2017-10-22T12:32:12.757Z,51.40
2017-10-22T12:34:40.465Z,49.10
2017-10-22T12:37:08.306Z,50.30
2017-10-22T12:39:36.407Z,50.80
2017-10-22T12:42:04.225Z,50.70
2017-10-22T12:44:32.081Z,51.90
2017-10-22T12:47:00.685Z,52.80
2017-10-22T12:49:28.761Z,51.70
2017-10-22T12:51:56.645Z,51.90
2017-10-22T12:54:25.273Z,51.40
2017-10-22T12:56:53.068Z,51.40
2017-10-22T12:59:20.933Z,51.00
2017-10-22T13:01:49.528Z,49.50
2017-10-22T13:04:17.314Z,50.20
2017-10-22T13:06:45.548Z,49.30
2017-10-22T13:09:13.340Z,48.40
2017-10-22T13:11:41.959Z,48.70
2017-10-22T13:14:10.167Z,48.30
2017-10-22T13:16:38.099Z,48.10
2017-10-22T13:19:06.647Z,49.30
2017-10-22T13:21:35.125Z,49.90
2017-10-22T13:24:03.102Z,49.70
2017-10-22T13:26:31.870Z,50.30
2017-10-22T13:28:59.855Z,51.90
2017-10-22T13:31:28.103Z,53.10
2017-10-22T13:33:56.230Z,53.30
2017-10-22T13:36:23.916Z,55.40
2017-10-22T13:41:20.789Z,61.30
2017-10-22T13:43:48.990Z,63.20
2017-10-22T13:46:16.953Z,62.90
2017-10-22T13:48:45.629Z,62.20
2017-10-22T13:51:13.494Z,60.10
2017-10-22T13:53:41.333Z,63.00
2017-10-22T13:56:09.905Z,61.10
2017-10-22T13:58:37.727Z,60.60
2017-10-22T14:01:05.975Z,60.00
2017-10-22T14:03:34.300Z,61.80
2017-10-22T14:06:02.124Z,58.90
2017-10-22T14:08:29.954Z,59.00
2017-10-22T14:10:57.739Z,59.80
2017-10-22T14:13:25.454Z,55.00
2017-10-22T14:15:53.525Z,53.10
2017-10-22T14:18:21.476Z,51.50
2017-10-22T14:20:49.376Z,52.20
2017-10-22T14:23:17.244Z,54.40
2017-10-22T14:25:45.131Z,53.50
2017-10-22T14:28:12.987Z,54.60
2017-10-22T14:30:40.749Z,56.10
2017-10-22T14:33:08.514Z,57.70
2017-10-22T14:35:37.114Z,57.60
2017-10-22T14:38:04.937Z,57.30
2017-10-22T14:40:32.753Z,61.20
2017-10-22T14:43:00.603Z,62.10
2017-10-22T14:47:57.521Z,63.60
2017-10-22T14:50:25.289Z,64.20
2017-10-22T14:52:54.040Z,71.50
2017-10-22T14:55:21.727Z,66.50
2017-10-22T14:57:49.600Z,65.80
2017-10-22T15:00:17.471Z,68.70
2017-10-22T15:02:45.371Z,64.90
2017-10-22T15:05:13.244Z,67.00
2017-10-22T15:07:41.518Z,63.90
2017-10-22T15:10:09.331Z,61.90
2017-10-22T15:12:37.411Z,60.40
2017-10-22T15:15:05.385Z,62.20
2017-10-22T15:17:33.304Z,63.80
2017-10-22T15:20:01.121Z,61.80
2017-10-22T15:22:28.937Z,61.90
2017-10-22T15:24:56.882Z,62.90
2017-10-22T15:27:24.694Z,64.20
2017-10-22T15:29:52.458Z,65.00
2017-10-22T15:32:20.360Z,60.70
2017-10-22T15:34:48.330Z,64.20
2017-10-22T15:37:16.637Z,60.90
2017-10-22T15:39:44.588Z,61.20
2017-10-22T15:42:12.346Z,61.10
2017-10-22T15:44:40.126Z,61.10
2017-10-22T15:47:09.082Z,59.30
2017-10-22T15:49:36.814Z,58.50
2017-10-22T15:52:04.625Z,58.00
2017-10-22T15:54:32.285Z,57.70
2017-10-22T15:57:00.750Z,57.30
2017-10-22T15:59:29.226Z,58.30
2017-10-22T16:01:58.140Z,57.70
2017-10-22T16:04:25.888Z,57.70
2017-10-22T16:06:53.656Z,59.00
2017-10-22T16:09:21.311Z,60.60
2017-10-22T16:11:49.035Z,62.10
2017-10-22T16:14:16.742Z,61.70
2017-10-22T16:19:13.585Z,65.80
2017-10-22T16:21:41.461Z,64.50
2017-10-22T16:24:09.209Z,67.80
2017-10-22T16:26:37.048Z,65.20
2017-10-22T16:29:05.760Z,66.10
2017-10-22T16:31:34.117Z,67.10
2017-10-22T16:34:03.615Z,67.30
2017-10-22T16:36:32.017Z,67.10
2017-10-22T16:38:59.797Z,70.00
2017-10-22T16:41:27.465Z,67.40
2017-10-22T16:43:55.134Z,67.70
2017-10-22T16:46:22.952Z,67.50
2017-10-22T16:48:50.643Z,67.70
2017-10-22T16:51:18.495Z,67.30
2017-10-22T16:53:46.541Z,67.40
2017-10-22T16:56:14.645Z,66.60
2017-10-22T16:58:42.456Z,68.10
2017-10-22T17:01:11.592Z,66.30
2017-10-22T17:03:39.540Z,67.90
2017-10-22T17:06:07.218Z,65.00
2017-10-22T17:08:35.003Z,65.70
2017-10-22T17:11:13.499Z,69.00
2017-10-22T17:13:41.707Z,65.50
2017-10-22T17:16:09.369Z,66.40
2017-10-22T17:18:38.652Z,64.90
2017-10-22T17:21:07.455Z,62.80
2017-10-22T17:23:36.793Z,62.60
2017-10-22T17:26:04.585Z,62.50
2017-10-22T17:28:32.759Z,62.40
2017-10-22T17:31:00.464Z,62.80
2017-10-22T17:33:28.196Z,62.40
2017-10-22T17:35:55.944Z,62.10
2017-10-22T17:38:23.597Z,63.90
2017-10-22T17:40:52.179Z,63.00
2017-10-22T17:43:19.977Z,63.70
2017-10-22T17:45:49.323Z,64.00
2017-10-22T17:48:18.180Z,64.50
2017-10-22T17:50:45.909Z,65.80
2017-10-22T17:53:13.580Z,68.60
2017-10-22T17:55:41.344Z,64.90
2017-10-22T17:58:09.896Z,64.80
2017-10-22T18:00:38.411Z,65.30
2017-10-22T18:03:06.069Z,65.90
2017-10-22T18:05:34.136Z,66.90
2017-10-22T18:10:30.901Z,72.60
2017-10-22T18:12:58.737Z,67.90
2017-10-22T18:15:26.388Z,72.90
2017-10-22T18:17:54.215Z,68.60
2017-10-22T18:20:21.826Z,68.20
2017-10-22T18:22:49.565Z,68.80
2017-10-22T18:25:18.073Z,68.10
2017-10-22T18:27:45.735Z,68.90
2017-10-22T18:30:13.508Z,73.00
2017-10-22T18:32:42.365Z,69.70
2017-10-22T18:35:10.381Z,70.60
2017-10-22T18:37:38.028Z,73.70
2017-10-22T18:40:05.888Z,70.00
2017-10-22T18:42:33.569Z,69.60
2017-10-22T18:45:01.298Z,72.40
2017-10-22T18:47:29.713Z,69.20
2017-10-22T18:49:57.466Z,68.60
2017-10-22T18:52:25.147Z,69.20
2017-10-22T18:54:53.249Z,68.80
2017-10-22T18:57:20.931Z,69.60
2017-10-22T18:59:48.593Z,69.30
2017-10-22T19:02:16.352Z,73.90
2017-10-22T19:04:45.189Z,70.50
2017-10-22T19:07:14.029Z,70.80
2017-10-22T19:09:42.917Z,70.50
2017-10-22T19:12:10.721Z,74.10
2017-10-22T19:14:38.854Z,69.80
2017-10-22T19:17:06.647Z,74.80
2017-10-22T19:19:34.421Z,73.50
2017-10-22T19:22:02.368Z,71.80
2017-10-22T19:24:30.521Z,70.70
2017-10-22T19:26:59.289Z,69.40
2017-10-22T19:29:27.065Z,74.10
2017-10-22T19:31:55.547Z,68.50
2017-10-22T19:34:23.345Z,68.90
2017-10-22T19:36:51.901Z,69.00
2017-10-22T19:39:20.590Z,68.80
2017-10-22T19:41:48.658Z,69.40
2017-10-22T19:44:16.929Z,70.50
2017-10-22T19:46:46.533Z,69.30
2017-10-22T19:49:14.225Z,69.70
2017-10-22T19:51:42.746Z,69.60
2017-10-22T19:54:10.824Z,70.00
2017-10-22T19:56:38.968Z,69.50
2017-10-22T19:59:07.776Z,69.60
2017-10-22T20:01:36.156Z,69.60
2017-10-22T20:04:05.181Z,69.60
2017-10-22T20:09:02.515Z,69.70
2017-10-22T20:11:31.017Z,70.40
2017-10-22T20:13:59.986Z,70.60
2017-10-22T20:16:28.029Z,70.40
2017-10-22T20:18:56.585Z,70.90
2017-10-22T20:21:24.780Z,70.80
2017-10-22T20:23:52.944Z,71.30
2017-10-22T20:26:21.684Z,71.60
2017-10-22T20:28:50.780Z,71.80
2017-10-22T20:31:20.626Z,71.70
2017-10-22T20:33:49.137Z,71.40
2017-10-22T20:38:46.258Z,71.40
2017-10-22T20:41:14.729Z,71.20
2017-10-22T20:43:42.870Z,70.70
2017-10-22T20:46:11.279Z,70.70
2017-10-22T20:48:40.137Z,70.70
2017-10-22T20:51:08.561Z,71.20
2017-10-22T20:53:37.423Z,71.70
2017-10-22T20:56:06.211Z,71.80
2017-10-22T20:58:34.708Z,71.80
2017-10-22T21:01:03.173Z,71.70
2017-10-22T21:03:32.126Z,71.80
2017-10-22T21:06:00.689Z,71.60
2017-10-22T21:08:29.214Z,71.50
2017-10-22T21:10:57.275Z,71.60
2017-10-22T21:13:26.401Z,71.10
2017-10-22T21:15:54.543Z,71.30
2017-10-22T21:18:22.644Z,71.60
2017-10-22T21:20:51.134Z,71.60
2017-10-22T21:23:19.225Z,72.00
2017-10-22T21:25:48.176Z,71.50
2017-10-22T21:28:16.653Z,72.30
2017-10-22T21:30:44.834Z,72.20
2017-10-22T21:33:12.923Z,72.30
2017-10-22T21:35:41.480Z,72.60
2017-10-22T21:38:10.022Z,72.40
2017-10-22T21:40:38.437Z,72.30
2017-10-22T21:43:07.284Z,72.10
2017-10-22T21:45:36.037Z,72.20
2017-10-22T21:48:04.626Z,71.80
2017-10-22T21:50:33.323Z,72.00
2017-10-22T21:53:02.022Z,71.90
2017-10-22T21:55:31.269Z,71.50
2017-10-22T21:58:00.161Z,71.70
2017-10-22T22:00:29.021Z,71.60
2017-10-22T22:02:57.785Z,73.20
2017-10-22T22:10:24.413Z,70.10
2017-10-22T22:12:52.603Z,70.60
2017-10-22T22:15:21.053Z,71.10
2017-10-22T22:17:49.555Z,70.90
2017-10-22T22:20:17.634Z,70.70
2017-10-22T22:22:46.849Z,70.00
2017-10-22T22:25:14.932Z,69.50
2017-10-22T22:27:42.731Z,74.50
2017-10-22T22:30:11.597Z,69.00
2017-10-22T22:32:40.185Z,68.80
2017-10-22T22:35:08.269Z,69.70
2017-10-22T22:37:36.805Z,68.80
2017-10-22T22:40:05.352Z,68.70
2017-10-22T22:42:34.054Z,68.60
2017-10-22T22:45:02.170Z,68.50
2017-10-22T22:47:30.649Z,68.40
2017-10-22T22:49:59.097Z,68.50
2017-10-22T22:52:27.146Z,68.70
2017-10-22T22:54:55.300Z,70.80
2017-10-22T22:57:23.405Z,68.30
2017-10-22T22:59:51.566Z,69.20
2017-10-22T23:02:20.120Z,68.70
2017-10-22T23:04:47.901Z,68.80
2017-10-22T23:07:15.661Z,76.20
2017-10-22T23:09:43.818Z,69.90
2017-10-22T23:12:12.329Z,69.00
2017-10-22T23:14:40.547Z,70.60
2017-10-22T23:17:08.685Z,71.00
2017-10-22T23:19:37.241Z,71.30
2017-10-22T23:22:06.525Z,71.80
2017-10-22T23:24:34.725Z,71.60
2017-10-22T23:27:02.905Z,70.80
2017-10-22T23:29:31.176Z,71.50
2017-10-22T23:32:00.114Z,71.80
2017-10-22T23:34:28.632Z,71.40
2017-10-22T23:36:57.172Z,71.40
2017-10-22T23:39:25.314Z,72.10
2017-10-22T23:41:53.799Z,72.60
2017-10-22T23:44:22.354Z,73.00
2017-10-22T23:46:50.517Z,72.90
2017-10-22T23:49:19.086Z,72.80
2017-10-22T23:51:47.698Z,73.00
2017-10-22T23:54:16.494Z,72.90
2017-10-22T23:56:45.129Z,73.80
2017-10-22T23:59:13.561Z,73.60
